Terminal Aerodrome Forecast
Issued by NWS

Home | Current Version | Previous Version | Text Only | Print | Product List | Glossary On
Versions: 1 2 3 4 5 6 7 8 9 10 11 12 13 14 15 16 17 18
000
FTUS43 KAPX 230523
TAFMBL
TAF
KMBL 230523Z 2306/2406 VRB03KT 6SM BR FEW002 BKN035
      TEMPO 2306/2308 -TSRA BKN035CB
     FM231000 18004KT 4SM BR BKN025
     FM231300 19004KT P6SM BKN120
     FM231900 31008KT P6SM SCT250
     FM240200 00000KT 4SM BR BKN250
     FM240500 02004KT 2SM BR BKN015=

USA.gov is the U.S. government's official web portal to all federal, state and local government web resources and services.